createdAt,value
2018-04-27T00:00:43.725Z,4.03
2018-04-27T00:03:10.029Z,4.20
2018-04-27T00:05:36.389Z,3.90
2018-04-27T00:08:02.748Z,4.23
2018-04-27T00:10:29.202Z,5.73
2018-04-27T00:12:55.589Z,4.03
2018-04-27T00:15:22.301Z,4.80
2018-04-27T00:17:48.763Z,4.83
2018-04-27T00:20:15.095Z,5.03
2018-04-27T00:22:41.762Z,4.10
2018-04-27T00:25:08.718Z,4.63
2018-04-27T00:27:35.228Z,4.50
2018-04-27T00:30:05.022Z,4.10
2018-04-27T00:32:32.070Z,4.80
2018-04-27T00:34:59.175Z,4.87
2018-04-27T00:37:25.515Z,4.87
2018-04-27T00:39:51.850Z,4.77
2018-04-27T00:42:18.105Z,5.87
2018-04-27T00:44:45.153Z,4.50
2018-04-27T00:47:12.128Z,4.23
2018-04-27T00:49:38.379Z,4.40
2018-04-27T00:52:04.567Z,4.60
2018-04-27T00:54:31.494Z,4.53
2018-04-27T00:56:57.687Z,4.50
2018-04-27T00:59:23.871Z,4.90
2018-04-27T01:01:50.958Z,4.60
2018-04-27T01:04:17.261Z,3.50
2018-04-27T01:06:43.518Z,3.70
2018-04-27T01:09:09.787Z,3.90
2018-04-27T01:11:36.055Z,4.03
2018-04-27T01:14:02.340Z,4.83
2018-04-27T01:16:28.616Z,4.30
2018-04-27T01:18:54.844Z,3.70
2018-04-27T01:21:21.114Z,4.37
2018-04-27T01:23:47.410Z,4.00
2018-04-27T01:26:13.606Z,4.30
2018-04-27T01:28:40.619Z,4.67
2018-04-27T01:31:06.816Z,4.40
2018-04-27T01:33:33.059Z,3.97
2018-04-27T01:35:59.384Z,4.50
2018-04-27T01:38:26.103Z,4.20
2018-04-27T01:40:53.155Z,4.60
2018-04-27T01:43:19.445Z,4.30
2018-04-27T01:45:45.696Z,4.00
2018-04-27T01:48:12.661Z,3.63
2018-04-27T01:50:38.919Z,4.57
2018-04-27T01:53:05.116Z,3.97
2018-04-27T01:55:32.048Z,4.80
2018-04-27T01:57:58.367Z,5.40
2018-04-27T02:00:24.614Z,4.47
2018-04-27T02:02:51.678Z,3.93
2018-04-27T02:05:17.904Z,4.70
2018-04-27T02:07:44.804Z,4.43
2018-04-27T02:10:10.995Z,4.50
2018-04-27T02:12:37.246Z,5.57
2018-04-27T02:15:03.476Z,4.33
2018-04-27T02:17:29.624Z,3.97
2018-04-27T02:19:55.905Z,4.10
2018-04-27T02:22:22.064Z,3.80
2018-04-27T02:24:48.189Z,3.73
2018-04-27T02:27:14.311Z,5.10
2018-04-27T02:29:40.445Z,3.70
2018-04-27T02:32:06.562Z,3.53
2018-04-27T02:34:32.675Z,6.00
2018-04-27T02:36:58.817Z,3.80
2018-04-27T02:39:24.947Z,3.33
2018-04-27T02:41:51.104Z,3.50
2018-04-27T02:44:17.287Z,3.73
2018-04-27T02:46:43.460Z,3.30
2018-04-27T02:49:09.579Z,3.20
2018-04-27T02:51:35.705Z,4.07
2018-04-27T02:54:01.851Z,3.90
2018-04-27T02:56:28.803Z,3.13
2018-04-27T02:58:55.707Z,3.20
2018-04-27T03:01:22.006Z,3.80
2018-04-27T03:03:48.904Z,4.13
2018-04-27T04:40:54.222Z,4.67
2018-04-27T04:43:21.082Z,3.70
2018-04-27T04:45:47.241Z,3.50
2018-04-27T04:48:13.416Z,4.67
2018-04-27T04:50:39.601Z,3.93
2018-04-27T04:53:05.774Z,3.87
2018-04-27T04:55:31.946Z,4.50
2018-04-27T04:57:58.185Z,4.20
2018-04-27T05:00:24.629Z,4.37
2018-04-27T05:02:50.966Z,4.53
2018-04-27T05:05:17.800Z,3.20
2018-04-27T05:07:44.008Z,4.17
2018-04-27T05:10:10.194Z,4.00
2018-04-27T05:12:36.362Z,3.60
2018-04-27T05:15:02.683Z,4.70
2018-04-27T05:17:29.142Z,5.07
2018-04-27T05:19:55.096Z,4.20
2018-04-27T05:22:21.324Z,5.07
2018-04-27T05:24:47.564Z,3.50
2018-04-27T05:27:14.488Z,5.87
2018-04-27T05:29:41.168Z,3.67
2018-04-27T05:32:07.464Z,4.00
2018-04-27T05:34:34.074Z,3.97
2018-04-27T05:37:00.274Z,2.93
2018-04-27T05:39:26.507Z,4.10
2018-04-27T05:41:52.747Z,4.07
2018-04-27T05:44:18.963Z,5.10
2018-04-27T05:46:45.205Z,3.90
2018-04-27T05:49:11.358Z,3.60
2018-04-27T05:51:37.577Z,3.87
2018-04-27T05:54:03.779Z,4.10
2018-04-27T05:56:30.119Z,3.40
2018-04-27T05:58:56.343Z,3.73
2018-04-27T06:01:22.820Z,3.40
2018-04-27T06:04:01.234Z,3.30
2018-04-27T06:06:27.551Z,3.40
2018-04-27T06:08:53.845Z,3.13
2018-04-27T06:11:20.073Z,3.77
2018-04-27T06:13:46.622Z,2.90
2018-04-27T06:16:12.858Z,3.37
2018-04-27T06:18:38.984Z,3.93
2018-04-27T06:21:05.898Z,2.90
2018-04-27T06:23:32.644Z,3.27
2018-04-27T06:25:59.826Z,3.43
2018-04-27T06:28:26.058Z,2.90
2018-04-27T06:30:52.787Z,2.60
2018-04-27T06:33:19.395Z,4.33
2018-04-27T06:35:46.685Z,2.70
2018-04-27T06:38:13.085Z,3.20
2018-04-27T06:40:39.285Z,3.50
2018-04-27T06:43:06.259Z,3.10
2018-04-27T06:45:32.511Z,2.90
2018-04-27T07:00:10.292Z,2.70
2018-04-27T07:02:36.559Z,2.50
2018-04-27T07:05:02.884Z,2.43
2018-04-27T07:07:29.413Z,2.50
2018-04-27T07:09:55.746Z,2.27
2018-04-27T07:12:22.062Z,1.83
2018-04-27T07:14:49.110Z,1.93
2018-04-27T07:17:15.299Z,2.53
2018-04-27T07:19:42.225Z,2.47
2018-04-27T07:22:08.832Z,2.43
2018-04-27T07:24:35.492Z,2.77
2018-04-27T07:27:02.146Z,3.40
2018-04-27T07:29:28.413Z,2.83
2018-04-27T07:31:54.903Z,2.90
2018-04-27T07:34:21.209Z,2.70
2018-04-27T07:36:47.440Z,2.40
2018-04-27T07:39:13.806Z,4.47
2018-04-27T07:41:40.936Z,2.30
2018-04-27T07:44:07.178Z,2.07
2018-04-27T07:46:33.965Z,2.23
2018-04-27T07:49:01.575Z,2.33
2018-04-27T07:51:27.768Z,2.70
2018-04-27T07:53:53.950Z,2.80
2018-04-27T07:56:20.876Z,2.60
2018-04-27T07:58:47.689Z,2.87
2018-04-27T08:01:14.298Z,2.80
2018-04-27T08:03:41.595Z,2.90
2018-04-27T08:06:08.709Z,1.93
2018-04-27T08:08:35.130Z,2.20
2018-04-27T08:11:01.291Z,1.90
2018-04-27T08:13:27.946Z,2.40
2018-04-27T08:15:54.442Z,2.33
2018-04-27T08:18:22.637Z,2.63
2018-04-27T08:20:49.503Z,2.57
2018-04-27T08:23:16.476Z,2.53
2018-04-27T08:25:42.784Z,2.60
2018-04-27T08:28:09.293Z,1.90
2018-04-27T08:30:36.136Z,2.40
2018-04-27T08:33:03.235Z,2.10
2018-04-27T08:35:30.153Z,2.67
2018-04-27T08:37:56.721Z,2.83
2018-04-27T08:40:23.714Z,2.60
2018-04-27T08:42:50.157Z,2.73
2018-04-27T08:45:17.219Z,3.40
2018-04-27T08:47:43.525Z,1.87
2018-04-27T08:50:09.779Z,1.93
2018-04-27T08:52:35.992Z,2.00
2018-04-27T08:55:02.312Z,1.37
2018-04-27T08:57:28.676Z,1.60
2018-04-27T08:59:55.331Z,1.60
2018-04-27T09:02:21.731Z,1.83
2018-04-27T09:04:48.200Z,1.47
2018-04-27T09:07:14.791Z,1.73
2018-04-27T09:09:41.358Z,1.60
2018-04-27T09:12:09.325Z,2.73
2018-04-27T09:14:35.644Z,2.27
2018-04-27T09:17:02.105Z,1.80
2018-04-27T09:19:28.609Z,1.40
2018-04-27T09:21:54.809Z,2.10
2018-04-27T09:24:21.133Z,1.73
2018-04-27T09:26:47.447Z,1.80
2018-04-27T09:29:13.665Z,1.77
2018-04-27T09:31:40.645Z,2.13
2018-04-27T09:34:07.886Z,2.13
2018-04-27T09:36:34.110Z,2.90
2018-04-27T09:39:00.285Z,1.70
2018-04-27T09:41:26.551Z,1.70
2018-04-27T09:43:53.041Z,1.67
2018-04-27T09:46:19.297Z,2.07
2018-04-27T09:48:45.735Z,1.63
2018-04-27T09:51:11.998Z,1.97
2018-04-27T09:53:38.171Z,1.60
2018-04-27T09:56:04.678Z,1.83
2018-04-27T09:58:30.895Z,1.60
2018-04-27T10:00:57.109Z,1.37
2018-04-27T10:03:23.308Z,1.70
2018-04-27T10:05:49.688Z,2.00
2018-04-27T10:08:15.972Z,2.03
2018-04-27T10:10:43.393Z,2.03
2018-04-27T10:13:09.585Z,1.80
2018-04-27T10:15:36.534Z,1.50
2018-04-27T10:18:03.426Z,1.47
2018-04-27T10:20:29.640Z,1.57
2018-04-27T10:22:55.876Z,1.70
2018-04-27T10:25:22.095Z,1.70
2018-04-27T10:27:48.374Z,1.73
2018-04-27T10:30:15.290Z,1.40
2018-04-27T10:32:41.558Z,1.50
2018-04-27T10:35:07.748Z,1.57
2018-04-27T10:37:34.178Z,1.90
2018-04-27T10:40:03.674Z,1.80
2018-04-27T10:42:30.381Z,2.50
2018-04-27T10:44:56.543Z,1.60
2018-04-27T10:47:22.716Z,2.20
2018-04-27T10:49:48.920Z,4.20
2018-04-27T10:52:18.139Z,1.80
2018-04-27T10:54:44.574Z,2.00
2018-04-27T10:57:12.379Z,1.80
2018-04-27T10:59:39.333Z,1.73
2018-04-27T11:02:07.102Z,2.13
2018-04-27T11:04:35.218Z,1.70
2018-04-27T11:07:01.630Z,1.80
2018-04-27T11:09:27.820Z,2.13
2018-04-27T11:11:54.171Z,2.07
2018-04-27T11:14:20.453Z,1.43
2018-04-27T11:16:47.424Z,2.03
2018-04-27T11:19:14.588Z,1.90
2018-04-27T11:21:40.839Z,1.90
2018-04-27T11:24:07.075Z,2.00
2018-04-27T11:26:34.091Z,1.27
2018-04-27T11:29:00.279Z,1.67
2018-04-27T11:31:27.255Z,1.80
2018-04-27T11:33:53.390Z,1.87
2018-04-27T11:36:19.530Z,1.60
2018-04-27T11:38:45.712Z,2.03
2018-04-27T11:41:12.703Z,1.77
2018-04-27T11:43:38.837Z,1.60
2018-04-27T11:46:05.338Z,1.50
2018-04-27T11:48:31.659Z,1.93
2018-04-27T11:50:58.569Z,2.07
2018-04-27T11:53:24.737Z,1.40
2018-04-27T11:55:51.710Z,1.60
2018-04-27T11:58:17.994Z,2.50
2018-04-27T12:00:44.941Z,1.77
2018-04-27T12:03:11.884Z,1.53
2018-04-27T12:05:38.216Z,1.37
2018-04-27T12:08:05.138Z,2.83
2018-04-27T12:10:31.255Z,1.87
2018-04-27T12:12:57.385Z,2.30
2018-04-27T12:15:24.502Z,2.30
2018-04-27T12:17:57.652Z,2.00
2018-04-27T12:20:23.863Z,2.17
2018-04-27T12:22:50.052Z,2.53
2018-04-27T12:25:17.644Z,2.30
2018-04-27T12:27:43.903Z,2.80
2018-04-27T12:30:10.058Z,2.67
2018-04-27T12:32:36.321Z,2.23
2018-04-27T12:35:02.639Z,2.40
2018-04-27T12:37:28.826Z,2.20
2018-04-27T12:39:56.038Z,2.50
2018-04-27T12:42:22.251Z,2.20
2018-04-27T12:44:48.680Z,2.23
2018-04-27T12:47:16.662Z,2.97
2018-04-27T12:49:42.928Z,2.33
2018-04-27T12:52:09.141Z,2.30
2018-04-27T12:54:35.246Z,2.60
2018-04-27T12:57:01.780Z,2.13
2018-04-27T12:59:29.009Z,2.50
2018-04-27T13:01:55.232Z,2.40
2018-04-27T13:04:22.467Z,2.47
2018-04-27T13:06:49.704Z,2.43
2018-04-27T13:09:17.487Z,1.93
2018-04-27T13:11:45.045Z,2.20
2018-04-27T13:14:12.332Z,1.80
2018-04-27T13:16:39.596Z,1.87
2018-04-27T14:26:08.143Z,2.17
2018-04-27T14:28:35.025Z,1.53
2018-04-27T14:31:05.589Z,3.80
2018-04-27T14:33:35.529Z,2.47
2018-04-27T14:36:02.093Z,2.10
2018-04-27T14:38:28.981Z,1.80
2018-04-27T14:40:56.860Z,2.23
2018-04-27T14:43:25.217Z,2.10
2018-04-27T14:45:53.846Z,2.00
2018-04-27T14:48:21.355Z,2.00
2018-04-27T14:50:48.915Z,2.27
2018-04-27T14:53:15.705Z,2.20
2018-04-27T14:55:42.496Z,1.97
2018-04-27T14:58:09.710Z,2.37
2018-04-27T15:00:36.666Z,2.30
2018-04-27T15:03:03.979Z,2.40
2018-04-27T15:05:30.941Z,2.00
2018-04-27T15:07:58.162Z,2.20
2018-04-27T15:10:25.509Z,2.10
2018-04-27T15:12:52.074Z,2.00
2018-04-27T15:15:18.783Z,2.80
2018-04-27T15:17:46.778Z,2.60
2018-04-27T15:20:13.085Z,2.33
2018-04-27T15:22:40.331Z,2.87
2018-04-27T15:25:06.474Z,1.77
2018-04-27T15:27:33.357Z,2.70
2018-04-27T15:29:59.667Z,2.10
2018-04-27T15:32:25.828Z,3.10
2018-04-27T15:34:52.074Z,2.30
2018-04-27T15:37:18.458Z,2.30
2018-04-27T15:39:44.780Z,3.37
2018-04-27T15:42:11.040Z,2.07
2018-04-27T15:44:37.229Z,3.30
2018-04-27T15:47:03.528Z,2.47
2018-04-27T15:49:30.478Z,2.43
2018-04-27T15:51:56.705Z,2.90
2018-04-27T15:54:22.768Z,2.10
2018-04-27T15:56:48.917Z,2.37
2018-04-27T15:59:15.085Z,3.03
2018-04-27T16:01:41.234Z,3.53
2018-04-27T16:04:09.218Z,2.57
2018-04-27T16:06:36.124Z,1.60
2018-04-27T16:09:02.279Z,2.37
2018-04-27T16:11:29.158Z,4.17
2018-04-27T16:13:57.509Z,2.33
2018-04-27T16:16:25.621Z,3.53
2018-04-27T16:18:51.768Z,2.43
2018-04-27T16:21:17.934Z,2.70
2018-04-27T16:23:44.972Z,2.53
2018-04-27T16:26:12.268Z,2.27
2018-04-27T16:28:38.527Z,3.10
2018-04-27T16:31:05.228Z,2.80
2018-04-27T16:33:31.867Z,2.70
2018-04-27T16:35:58.846Z,2.83
2018-04-27T16:38:25.040Z,2.30
2018-04-27T16:40:52.190Z,2.70
2018-04-27T16:43:18.747Z,3.90
2018-04-27T16:45:46.600Z,2.90
2018-04-27T16:48:13.259Z,2.80
2018-04-27T16:50:40.048Z,2.47
2018-04-27T16:53:06.378Z,3.13
2018-04-27T16:55:33.919Z,3.77
2018-04-27T16:58:01.336Z,3.07
2018-04-27T17:00:28.386Z,3.60
2018-04-27T17:02:54.655Z,3.10
2018-04-27T17:05:21.629Z,3.20
2018-04-27T17:07:47.847Z,2.70
2018-04-27T17:10:14.788Z,3.50
2018-04-27T17:12:43.130Z,4.00
2018-04-27T17:15:11.995Z,3.60
2018-04-27T17:17:38.643Z,3.60
2018-04-27T17:20:05.138Z,3.03
2018-04-27T17:22:33.673Z,3.83
2018-04-27T17:25:00.219Z,3.60
2018-04-27T17:27:28.305Z,3.53
2018-04-27T17:29:55.560Z,3.47
2018-04-27T17:32:24.190Z,2.67
2018-04-27T17:34:50.772Z,3.03
2018-04-27T17:37:17.229Z,2.80
2018-04-27T17:39:43.783Z,2.93
2018-04-27T17:42:11.717Z,2.80
2018-04-27T17:44:38.085Z,2.80
2018-04-27T17:47:05.185Z,2.00
2018-04-27T17:49:31.348Z,2.73
2018-04-27T17:51:58.553Z,2.60
2018-04-27T17:54:24.744Z,3.10
2018-04-27T17:56:50.889Z,2.40
2018-04-27T17:59:17.335Z,2.83
2018-04-27T18:01:43.647Z,2.83
2018-04-27T18:04:10.152Z,3.33
2018-04-27T18:06:37.180Z,2.97
2018-04-27T18:09:04.110Z,3.63
2018-04-27T18:11:30.356Z,2.87
2018-04-27T18:13:57.205Z,3.00
2018-04-27T18:16:24.486Z,3.53
2018-04-27T18:18:51.630Z,2.80
2018-04-27T18:21:18.523Z,2.57
2018-04-27T18:23:44.674Z,3.27
2018-04-27T18:26:11.380Z,3.87
2018-04-27T18:28:37.637Z,2.60
2018-04-27T18:31:04.357Z,2.50
2018-04-27T18:33:31.387Z,2.60
2018-04-27T18:35:59.005Z,3.20
2018-04-27T18:38:26.493Z,2.77
2018-04-27T18:40:52.937Z,3.10
2018-04-27T18:43:19.834Z,1.90
2018-04-27T18:45:47.679Z,2.57
2018-04-27T18:50:50.925Z,3.43
2018-04-27T18:53:17.595Z,3.10
2018-04-27T18:55:44.420Z,3.03
2018-04-27T18:58:13.817Z,5.60
2018-04-27T19:00:40.763Z,4.53
2018-04-27T19:03:07.319Z,2.90
2018-04-27T19:05:33.519Z,2.93
2018-04-27T19:08:04.962Z,3.20
2018-04-27T19:10:32.311Z,2.67
2018-04-27T19:12:58.509Z,3.20
2018-04-27T19:15:25.281Z,3.57
2018-04-27T19:18:01.040Z,3.93
2018-04-27T19:20:27.646Z,2.60
2018-04-27T19:22:53.863Z,3.10
2018-04-27T19:25:20.826Z,4.13
2018-04-27T19:27:46.991Z,3.00
2018-04-27T19:30:15.130Z,3.10
2018-04-27T19:32:41.360Z,3.17
2018-04-27T19:35:07.570Z,2.90
2018-04-27T19:37:33.809Z,2.37
2018-04-27T19:40:00.000Z,3.40
2018-04-27T19:42:26.192Z,2.70
2018-04-27T19:44:52.441Z,2.47
2018-04-27T19:47:20.776Z,2.20
2018-04-27T19:49:51.063Z,3.40
2018-04-27T19:52:18.247Z,2.33
2018-04-27T19:54:46.528Z,2.57
2018-04-27T19:57:16.112Z,2.40
2018-04-27T19:59:44.985Z,2.50
2018-04-27T20:02:23.597Z,3.00
2018-04-27T20:05:07.661Z,3.00
2018-04-27T20:07:46.859Z,3.40
2018-04-27T20:10:23.608Z,3.50
2018-04-27T20:12:50.755Z,2.90
2018-04-27T20:15:19.100Z,2.80
2018-04-27T20:17:49.188Z,2.80
2018-04-27T20:20:18.267Z,3.23
2018-04-27T20:22:47.893Z,3.00
2018-04-27T20:25:14.134Z,2.80
2018-04-27T20:27:41.866Z,2.30
2018-04-27T20:30:10.089Z,2.83
2018-04-27T20:32:36.548Z,3.10
2018-04-27T20:35:05.039Z,2.93
2018-04-27T20:37:33.201Z,3.37
2018-04-27T20:39:59.621Z,2.60
2018-04-27T20:42:26.298Z,3.50
2018-04-27T20:44:52.684Z,3.13
2018-04-27T20:47:18.895Z,2.93
2018-04-27T20:49:46.012Z,3.63
2018-04-27T20:52:12.923Z,3.40
2018-04-27T20:54:40.064Z,2.63
2018-04-27T20:57:07.770Z,3.80
2018-04-27T20:59:46.312Z,3.20
2018-04-27T21:02:16.717Z,3.80
2018-04-27T21:04:53.368Z,4.00
2018-04-27T21:07:20.933Z,4.23
2018-04-27T21:15:43.318Z,3.17
2018-04-27T21:18:10.973Z,4.07
2018-04-27T21:20:37.147Z,3.80
2018-04-27T21:23:04.039Z,3.70
2018-04-27T21:25:30.979Z,3.50
2018-04-27T21:27:59.214Z,3.50
2018-04-27T21:30:26.102Z,3.33
2018-04-27T21:32:57.951Z,3.70
2018-04-27T22:21:37.037Z,3.70
2018-04-27T22:24:03.160Z,4.17
2018-04-27T22:26:29.338Z,5.20
2018-04-27T22:28:57.277Z,5.13
2018-04-27T22:31:23.417Z,3.50
2018-04-27T22:33:52.688Z,4.00
2018-04-27T22:36:40.758Z,3.83
2018-04-27T22:39:18.367Z,4.20
2018-04-27T22:41:52.389Z,3.40
2018-04-27T22:44:18.521Z,3.13
2018-04-27T22:46:44.643Z,3.87
2018-04-27T22:49:14.490Z,3.90
2018-04-27T22:51:41.550Z,3.60
2018-04-27T23:08:16.618Z,3.73
2018-04-27T23:10:50.948Z,3.23
2018-04-27T23:13:19.549Z,4.10
2018-04-27T23:15:45.662Z,3.40
2018-04-27T23:18:15.694Z,4.23
2018-04-27T23:20:44.605Z,3.03
2018-04-27T23:23:11.538Z,3.20
2018-04-27T23:25:37.655Z,2.83
2018-04-27T23:28:03.779Z,3.70
2018-04-27T23:30:30.823Z,3.50
2018-04-27T23:32:56.962Z,3.67
2018-04-27T23:35:23.122Z,3.50
2018-04-27T23:37:49.242Z,3.37
2018-04-27T23:40:15.381Z,2.77
2018-04-27T23:42:41.544Z,3.77
2018-04-27T23:45:08.441Z,3.50
2018-04-27T23:47:34.562Z,3.00
2018-04-27T23:50:00.691Z,3.40
2018-04-27T23:52:26.822Z,2.63
2018-04-27T23:54:52.929Z,2.60
2018-04-27T23:57:19.875Z,3.17
2018-04-27T23:59:45.993Z,2.97
